Time;durP1;ratioP1;P1;durP2;ratioP2;P2;SDS_P1;SDS_P2;PMS_P1;PMS_P2;Temp;Humidity;BMP_temperature;BMP_pressure;BME280_temperature;BME280_humidity;BME280_pressure;Samples;Min_cycle;Max_cycle;Signal;HPM_P1;HPM_P2
2023/01/01 00:01:10;;;;;;;29.33;16.50;;;14.30;6.80;;;;;;5020851;28;20056;-64
2023/01/01 00:03:37;;;;;;;24.40;11.55;;;14.30;99.90;;;;;;5020411;28;20060;-63
2023/01/01 00:06:12;;;;;;;21.73;10.25;;;14.30;79.90;;;;;;5020849;28;20159;-64
2023/01/01 00:08:38;;;;;;;20.33;11.27;;;14.30;1.00;;;;;;5021826;28;20044;-64
2023/01/01 00:11:07;;;;;;;20.63;10.10;;;14.30;99.90;;;;;;5020765;28;20093;-63
2023/01/01 00:13:34;;;;;;;23.75;9.32;;;14.20;1.00;;;;;;5038570;28;20045;-64
2023/01/01 00:16:07;;;;;;;16.25;8.38;;;14.20;99.90;;;;;;5040343;28;20552;-63
2023/01/01 00:18:33;;;;;;;15.93;7.18;;;14.20;66.50;;;;;;5021934;28;20053;-64
2023/01/01 00:21:17;;;;;;;35.67;15.88;;;14.30;63.00;;;;;;5022573;28;20759;-64
2023/01/01 00:23:43;;;;;;;75.25;39.40;;;14.30;23.70;;;;;;5022833;28;20060;-64
2023/01/01 00:26:10;;;;;;;36.72;21.27;;;14.20;99.90;;;;;;5023014;28;20045;-64
2023/01/01 00:28:36;;;;;;;19.33;8.95;;;14.20;23.60;;;;;;5005549;28;20560;-64
2023/01/01 00:31:13;;;;;;;24.08;11.30;;;14.10;99.90;;;;;;5023045;28;20041;-65
2023/01/01 00:33:39;;;;;;;32.03;18.02;;;14.00;75.50;;;;;;5022330;28;20072;-65
2023/01/01 00:36:10;;;;;;;19.60;8.88;;;14.00;99.90;;;;;;5021776;28;20095;-64
2023/01/01 00:38:36;;;;;;;19.70;10.70;;;13.80;99.90;;;;;;5018327;28;20533;-64
2023/01/01 00:41:02;;;;;;;25.73;12.50;;;13.70;99.90;;;;;;5022233;28;20059;-63
2023/01/01 00:43:28;;;;;;;21.88;11.88;;;13.60;99.90;;;;;;5022762;28;20048;-64
2023/01/01 00:45:54;;;;;;;18.75;10.77;;;13.50;99.90;;;;;;5022219;28;20430;-64
2023/01/01 00:48:20;;;;;;;18.33;8.90;;;13.40;99.90;;;;;;5022419;28;20047;-64
2023/01/01 00:50:47;;;;;;;19.38;12.05;;;13.50;99.90;;;;;;5022135;28;20041;-65
2023/01/01 00:53:13;;;;;;;19.42;10.32;;;13.50;99.90;;;;;;5023380;28;20041;-64
2023/01/01 00:55:40;;;;;;;30.77;16.70;;;13.50;99.90;;;;;;5041318;28;20102;-64
2023/01/01 00:58:06;;;;;;;27.02;15.23;;;13.40;99.90;;;;;;5040635;28;20189;-65
2023/01/01 01:00:31;;;;;;;20.88;11.27;;;13.40;99.90;;;;;;4989786;28;20106;-65
2023/01/01 01:02:57;;;;;;;17.55;10.32;;;13.40;99.90;;;;;;5005658;28;20077;-64
2023/01/01 01:05:23;;;;;;;18.08;8.98;;;13.40;99.90;;;;;;5022260;28;20413;-65
2023/01/01 01:07:49;;;;;;;22.55;11.90;;;13.40;99.90;;;;;;5005603;28;20674;-64
2023/01/01 01:10:14;;;;;;;20.92;10.80;;;13.40;99.90;;;;;;5023161;28;20049;-65
2023/01/01 01:12:40;;;;;;;18.73;11.35;;;13.40;99.90;;;;;;5005873;28;20041;-63
2023/01/01 01:15:07;;;;;;;18.92;10.80;;;13.40;99.90;;;;;;5040377;28;20041;-65
2023/01/01 01:17:33;;;;;;;21.42;12.02;;;13.40;99.90;;;;;;5040601;28;20041;-65
2023/01/01 01:19:59;;;;;;;20.90;11.88;;;13.40;99.90;;;;;;5022734;28;20122;-66
2023/01/01 01:22:25;;;;;;;21.75;12.25;;;13.20;99.90;;;;;;5007987;28;20048;-66
2023/01/01 01:24:50;;;;;;;28.33;16.05;;;13.20;99.90;;;;;;5026225;28;20130;-65
2023/01/01 01:27:16;;;;;;;28.77;16.00;;;13.00;99.90;;;;;;5026084;28;20055;-63
2023/01/01 01:29:42;;;;;;;30.80;15.80;;;12.90;99.90;;;;;;5026862;28;20041;-62
2023/01/01 01:32:10;;;;;;;28.45;15.88;;;12.90;99.90;;;;;;5026165;28;20513;-64
2023/01/01 01:34:35;;;;;;;25.40;16.25;;;12.90;1.00;;;;;;5010166;28;20045;-63
2023/01/01 01:37:01;;;;;;;28.30;17.75;;;12.90;99.90;;;;;;5009587;28;20163;-65
2023/01/01 01:39:28;;;;;;;30.13;18.67;;;13.00;1.00;;;;;;5044686;28;20055;-65
2023/01/01 01:41:54;;;;;;;31.75;19.75;;;12.90;1.00;;;;;;5043240;28;20609;-63
2023/01/01 01:44:47;;;;;;;32.22;19.95;;;12.90;1.00;;;;;;5044741;28;20127;-62
2023/01/01 01:47:33;;;;;;;33.10;20.75;;;13.00;99.90;;;;;;5026008;28;20049;-63
2023/01/01 01:50:15;;;;;;;25.63;16.95;;;13.00;99.90;;;;;;5026257;28;20085;-63
2023/01/01 01:53:06;;;;;;;34.78;20.52;;;13.00;99.90;;;;;;5044419;28;20096;-63
2023/01/01 01:55:35;;;;;;;33.63;22.20;;;13.00;99.90;;;;;;5012629;28;20399;-64
2023/01/01 01:58:02;;;;;;;37.15;24.60;;;12.90;1.00;;;;;;5025947;28;20045;-62
2023/01/01 02:00:28;;;;;;;35.92;23.30;;;12.80;1.00;;;;;;5026879;28;20041;-64
2023/01/01 02:03:16;;;;;;;35.55;26.45;;;12.60;3.00;;;;;;5010858;28;20045;-63
2023/01/01 02:05:43;;;;;;;40.97;26.98;;;12.50;9.40;;;;;;5044553;28;20365;-63
2023/01/01 02:08:11;;;;;;;41.15;29.58;;;12.40;99.90;;;;;;5044176;28;20419;-64
2023/01/01 02:10:37;;;;;;;40.97;28.42;;;12.30;99.90;;;;;;5025989;28;20037;-65
2023/01/01 02:13:02;;;;;;;38.85;27.42;;;12.30;99.90;;;;;;4993177;28;20037;-63
2023/01/01 02:15:35;;;;;;;42.83;31.58;;;12.30;99.90;;;;;;5043725;28;20493;-64
2023/01/01 02:18:12;;;;;;;44.10;31.45;;;12.30;99.90;;;;;;5024922;28;20049;-64
2023/01/01 02:20:49;;;;;;;46.45;35.13;;;12.30;99.90;;;;;;5043337;28;20045;-65
2023/01/01 02:23:23;;;;;;;42.20;32.13;;;12.20;99.90;;;;;;5042689;28;20047;-65
2023/01/01 02:26:10;;;;;;;48.72;35.58;;;12.20;99.90;;;;;;5025189;28;20048;-64
2023/01/01 02:29:01;;;;;;;45.72;38.25;;;12.20;99.90;;;;;;5009086;28;20474;-65
2023/01/01 02:31:37;;;;;;;53.25;40.67;;;12.10;99.90;;;;;;5025582;28;20470;-64
2023/01/01 02:34:06;;;;;;;52.53;39.95;;;12.10;99.90;;;;;;5025239;28;20103;-64
2023/01/01 02:36:34;;;;;;;52.97;37.45;;;12.10;99.90;;;;;;5042614;28;20045;-64
2023/01/01 02:39:03;;;;;;;54.38;40.67;;;12.10;99.90;;;;;;5024940;28;20044;-65
2023/01/01 02:41:37;;;;;;;55.40;43.40;;;12.10;99.90;;;;;;5025447;28;20413;-64
2023/01/01 02:44:03;;;;;;;53.28;40.65;;;12.00;99.90;;;;;;5042591;28;20167;-64
2023/01/01 02:46:34;;;;;;;55.65;42.25;;;12.00;99.90;;;;;;4991379;28;21313;-64
2023/01/01 02:49:00;;;;;;;50.90;39.40;;;12.00;99.90;;;;;;5024522;28;20151;-65
2023/01/01 02:51:59;;;;;;;50.08;37.70;;;12.00;99.90;;;;;;5008278;28;20036;-64
2023/01/01 02:54:39;;;;;;;51.65;38.95;;;12.00;99.90;;;;;;5024796;28;20045;-64
2023/01/01 02:57:36;;;;;;;49.90;34.42;;;12.10;99.90;;;;;;5024036;28;20049;-65
2023/01/01 03:00:26;;;;;;;41.70;29.55;;;12.10;99.90;;;;;;5024322;28;20051;-63
2023/01/01 03:03:23;;;;;;;43.38;30.85;;;12.10;99.90;;;;;;5024493;28;20056;-65
2023/01/01 03:08:45;;;;;;;47.83;32.00;;;12.10;99.90;;;;;;5040725;28;20576;-63
2023/01/01 03:11:15;;;;;;;38.38;25.88;;;12.00;99.90;;;;;;5009067;28;20459;-64
2023/01/01 03:14:02;;;;;;;32.25;22.33;;;12.00;99.90;;;;;;5023935;28;20045;-64
2023/01/01 03:16:38;;;;;;;40.50;26.50;;;12.00;99.90;;;;;;5006889;28;20044;-63
2023/01/01 03:19:13;;;;;;;42.60;29.13;;;11.80;99.90;;;;;;5041800;28;20057;-65
2023/01/01 03:21:42;;;;;;;41.97;26.50;;;11.90;99.90;;;;;;5042609;28;20094;-64
2023/01/01 03:24:12;;;;;;;42.63;30.20;;;11.70;99.90;;;;;;5041735;28;20099;-66
2023/01/01 03:26:40;;;;;;;43.78;30.23;;;11.80;99.90;;;;;;5040783;28;20041;-64
2023/01/01 03:29:09;;;;;;;50.03;35.45;;;11.80;99.90;;;;;;5023719;28;20282;-66
2023/01/01 03:31:37;;;;;;;46.15;29.90;;;11.60;99.90;;;;;;5023821;28;20052;-66
2023/01/01 03:34:12;;;;;;;41.45;28.70;;;11.60;99.90;;;;;;5041958;28;20139;-65
2023/01/01 03:36:43;;;;;;;41.75;28.80;;;11.50;99.90;;;;;;5041457;28;20099;-65
2023/01/01 03:39:16;;;;;;;36.90;21.73;;;11.40;99.90;;;;;;5007411;28;20048;-65
2023/01/01 03:41:53;;;;;;;29.45;18.58;;;11.60;99.90;;;;;;5007647;28;20049;-65
2023/01/01 03:44:22;;;;;;;32.08;19.70;;;11.60;99.90;;;;;;5040607;28;20067;-65
2023/01/01 03:46:49;;;;;;;31.80;20.08;;;11.60;99.90;;;;;;5040629;28;20029;-66
2023/01/01 03:49:15;;;;;;;32.17;19.25;;;11.50;99.90;;;;;;5023482;28;20510;-66
2023/01/01 03:51:56;;;;;;;35.55;21.05;;;11.50;99.90;;;;;;5023962;28;20044;-65
2023/01/01 03:54:51;;;;;;;38.95;23.58;;;11.60;99.90;;;;;;5041502;28;20606;-64
2023/01/01 03:57:54;;;;;;;31.15;19.85;;;11.30;99.90;;;;;;5021757;28;20526;-65
2023/01/01 04:00:27;;;;;;;29.70;18.92;;;11.30;99.90;;;;;;5041120;28;20084;-65
2023/01/01 04:03:11;;;;;;;24.23;15.63;;;11.30;99.90;;;;;;5023266;28;20396;-65
2023/01/01 04:05:39;;;;;;;21.30;14.38;;;11.40;99.90;;;;;;5021733;28;20041;-66
2023/01/01 04:08:06;;;;;;;24.02;13.48;;;11.50;99.90;;;;;;5022779;28;20136;-66
2023/01/01 04:10:34;;;;;;;21.73;12.15;;;11.50;99.90;;;;;;5023154;28;20041;-65
2023/01/01 04:13:03;;;;;;;24.10;14.93;;;11.50;99.90;;;;;;5041245;28;20040;-65
2023/01/01 04:15:30;;;;;;;25.13;15.77;;;11.30;99.90;;;;;;5005816;28;20048;-66
2023/01/01 04:17:56;;;;;;;21.75;14.18;;;11.30;99.90;;;;;;5041155;28;20048;-66
2023/01/01 04:20:22;;;;;;;22.25;14.00;;;11.30;99.90;;;;;;5040683;28;20491;-64
2023/01/01 04:22:50;;;;;;;16.88;11.00;;;11.20;99.90;;;;;;5022907;28;20824;-66
2023/01/01 04:25:16;;;;;;;18.27;11.07;;;11.50;99.90;;;;;;5022635;28;20044;-65
2023/01/01 04:27:43;;;;;;;16.40;9.95;;;11.40;99.90;;;;;;5023126;28;20578;-66
2023/01/01 04:30:11;;;;;;;16.55;7.95;;;11.50;99.90;;;;;;5006255;28;20045;-65
2023/01/01 04:32:38;;;;;;;12.32;6.07;;;11.60;99.90;;;;;;5023263;28;20053;-65
2023/01/01 04:35:05;;;;;;;11.90;6.47;;;11.50;99.90;;;;;;5022149;28;20395;-66
2023/01/01 04:37:30;;;;;;;10.63;4.88;;;11.50;99.90;;;;;;5022534;28;20312;-66
2023/01/01 04:39:56;;;;;;;11.20;5.68;;;11.50;99.90;;;;;;5040003;28;20037;-65
2023/01/01 04:42:22;;;;;;;15.05;5.15;;;11.50;99.90;;;;;;5006103;28;20044;-65
2023/01/01 04:44:47;;;;;;;12.88;4.72;;;11.80;99.90;;;;;;5022279;28;20080;-65
2023/01/01 04:47:14;;;;;;;10.88;4.22;;;11.80;99.90;;;;;;5022271;28;20076;-65
2023/01/01 04:49:39;;;;;;;8.75;2.10;;;11.60;99.90;;;;;;5039989;28;20128;-64
2023/01/01 04:52:05;;;;;;;7.18;2.00;;;11.70;99.90;;;;;;5022219;28;20439;-65
2023/01/01 04:54:31;;;;;;;8.90;2.78;;;11.80;99.90;;;;;;5022874;28;20094;-64
2023/01/01 04:56:56;;;;;;;9.40;2.45;;;11.80;99.90;;;;;;5023993;28;20041;-64
2023/01/01 04:59:22;;;;;;;13.40;2.97;;;11.70;99.90;;;;;;5045005;28;20380;-65
2023/01/01 05:01:48;;;;;;;16.55;3.55;;;11.80;99.90;;;;;;5026505;28;20450;-65
2023/01/01 05:04:15;;;;;;;16.40;3.70;;;11.80;99.90;;;;;;5044323;28;20086;-66
2023/01/01 05:06:41;;;;;;;15.77;4.28;;;11.70;99.90;;;;;;5043919;28;20057;-64
2023/01/01 05:09:09;;;;;;;15.60;3.83;;;11.70;99.90;;;;;;5026674;28;20444;-64
2023/01/01 05:11:35;;;;;;;14.02;4.03;;;11.70;99.90;;;;;;5026461;28;20049;-65
2023/01/01 05:14:01;;;;;;;14.52;4.53;;;11.70;99.90;;;;;;5026701;28;20161;-64
2023/01/01 05:16:33;;;;;;;17.88;4.65;;;11.80;99.90;;;;;;5025743;28;20049;-65
2023/01/01 05:18:59;;;;;;;16.70;4.82;;;11.70;99.90;;;;;;5009829;28;20044;-66
2023/01/01 05:21:37;;;;;;;16.48;4.68;;;11.80;99.90;;;;;;5026425;28;20053;-66
2023/01/01 05:24:08;;;;;;;17.42;4.78;;;11.70;99.90;;;;;;5026253;28;20106;-65
2023/01/01 05:26:37;;;;;;;17.17;4.97;;;11.70;99.90;;;;;;5044077;28;20140;-65
2023/01/01 05:29:03;;;;;;;17.92;4.45;;;11.70;99.90;;;;;;5043899;28;20101;-63
2023/01/01 05:31:32;;;;;;;13.10;4.07;;;11.80;99.90;;;;;;5026499;28;20127;-64
2023/01/01 05:33:58;;;;;;;11.25;3.30;;;11.70;99.90;;;;;;5027093;28;20048;-63
2023/01/01 05:36:34;;;;;;;13.68;3.40;;;11.70;99.90;;;;;;5009467;28;20380;-64
2023/01/01 05:39:00;;;;;;;11.02;2.45;;;11.80;99.90;;;;;;5044115;28;20045;-63
2023/01/01 05:41:26;;;;;;;9.15;2.90;;;11.80;99.90;;;;;;5044754;28;20125;-64
2023/01/01 05:43:52;;;;;;;12.10;3.00;;;11.90;99.90;;;;;;5044697;28;20080;-63
2023/01/01 05:46:23;;;;;;;12.20;2.38;;;11.90;99.90;;;;;;5043440;28;20408;-65
2023/01/01 05:48:49;;;;;;;11.50;2.15;;;11.90;99.90;;;;;;5009677;28;20631;-63
2023/01/01 05:51:23;;;;;;;10.82;3.13;;;12.00;99.90;;;;;;5043645;28;20040;-65
2023/01/01 05:53:50;;;;;;;9.88;2.05;;;11.90;99.90;;;;;;5025768;28;20040;-65
2023/01/01 05:56:17;;;;;;;8.45;1.85;;;12.00;99.90;;;;;;5026021;28;20067;-64
2023/01/01 05:58:44;;;;;;;13.80;2.42;;;11.90;99.90;;;;;;5043386;28;20041;-63
2023/01/01 06:01:22;;;;;;;9.10;1.95;;;12.00;99.90;;;;;;5025973;28;20049;-64
2023/01/01 06:03:49;;;;;;;8.93;2.05;;;12.00;99.90;;;;;;5043872;28;20462;-63
2023/01/01 06:06:21;;;;;;;12.27;2.42;;;12.00;99.90;;;;;;5008590;28;20460;-65
2023/01/01 06:08:51;;;;;;;9.98;2.00;;;11.90;99.90;;;;;;5024497;28;20110;-64
2023/01/01 06:11:17;;;;;;;11.20;2.40;;;11.90;99.90;;;;;;5025842;28;20071;-64
2023/01/01 06:13:43;;;;;;;7.93;1.92;;;11.80;99.90;;;;;;5024604;28;20550;-63
2023/01/01 06:16:10;;;;;;;9.00;1.33;;;11.90;99.90;;;;;;5022521;28;20339;-64
2023/01/01 06:18:35;;;;;;;8.25;1.58;;;11.90;99.90;;;;;;5043226;28;20041;-63
2023/01/01 06:21:26;;;;;;;11.90;1.55;;;12.00;99.90;;;;;;5025766;28;20048;-63
2023/01/01 06:23:53;;;;;;;4.97;1.05;;;12.00;99.90;;;;;;5011020;28;20063;-64
2023/01/01 06:26:28;;;;;;;8.38;1.20;;;11.90;1.00;;;;;;5024918;28;20045;-64
2023/01/01 06:28:54;;;;;;;9.60;1.27;;;12.00;99.90;;;;;;5043415;28;20067;-65
2023/01/01 06:31:21;;;;;;;10.70;1.10;;;12.00;1.00;;;;;;5043335;28;20400;-64
2023/01/01 06:33:47;;;;;;;7.57;1.00;;;11.90;1.00;;;;;;5025067;28;20372;-63
2023/01/01 06:36:15;;;;;;;8.07;1.00;;;11.90;99.90;;;;;;5024886;28;20056;-65
2023/01/01 06:38:44;;;;;;;7.20;1.02;;;11.80;99.90;;;;;;5042914;28;20049;-63
2023/01/01 06:41:12;;;;;;;10.55;1.20;;;11.90;99.90;;;;;;5024749;28;20037;-62
2023/01/01 06:43:38;;;;;;;8.50;1.15;;;11.90;99.90;;;;;;5025318;28;20045;-63
2023/01/01 06:46:13;;;;;;;4.82;0.45;;;11.90;99.90;;;;;;5024364;28;20041;-63
2023/01/01 06:48:38;;;;;;;6.88;0.73;;;11.90;99.90;;;;;;5024098;28;20509;-64
2023/01/01 06:51:13;;;;;;;7.10;0.55;;;12.00;99.90;;;;;;5024186;28;20257;-64
2023/01/01 06:53:39;;;;;;;7.53;0.82;;;11.90;99.90;;;;;;5024470;28;20049;-63
2023/01/01 06:56:05;;;;;;;7.85;0.75;;;12.00;99.90;;;;;;5042056;28;20079;-64
2023/01/01 06:58:31;;;;;;;6.97;0.80;;;11.90;99.90;;;;;;5042130;28;20140;-63
2023/01/01 07:01:05;;;;;;;9.18;0.60;;;11.90;99.90;;;;;;5023823;28;20150;-64
2023/01/01 07:03:30;;;;;;;7.07;0.77;;;12.00;99.90;;;;;;5024663;28;20048;-64
2023/01/01 07:05:56;;;;;;;7.13;0.70;;;11.90;99.90;;;;;;5024184;28;20513;-65
2023/01/01 07:08:22;;;;;;;7.93;0.70;;;11.90;99.90;;;;;;5023861;28;20059;-63
2023/01/01 07:10:48;;;;;;;7.88;0.60;;;11.90;99.90;;;;;;5024201;28;20075;-64
2023/01/01 07:13:13;;;;;;;7.78;0.95;;;11.80;99.90;;;;;;5042626;28;20531;-64
2023/01/01 07:15:39;;;;;;;4.78;0.52;;;11.90;99.90;;;;;;5023907;28;20099;-63
2023/01/01 07:18:05;;;;;;;10.77;1.05;;;11.80;99.90;;;;;;5023585;28;20114;-64
2023/01/01 07:20:30;;;;;;;8.80;0.98;;;11.80;99.90;;;;;;5022060;28;20051;-63
2023/01/01 07:22:56;;;;;;;11.15;0.82;;;11.80;99.90;;;;;;5042048;28;20048;-64
2023/01/01 07:25:22;;;;;;;9.57;0.93;;;11.70;99.90;;;;;;5042046;28;20423;-64
2023/01/01 07:27:47;;;;;;;12.05;1.40;;;11.70;99.90;;;;;;5041977;28;20120;-64
2023/01/01 07:30:13;;;;;;;15.70;1.73;;;11.70;99.90;;;;;;5023707;28;20450;-64
2023/01/01 07:32:39;;;;;;;8.52;0.68;;;11.70;63.70;;;;;;5040765;28;20045;-63
2023/01/01 07:35:05;;;;;;;10.02;1.10;;;11.60;99.90;;;;;;5007458;28;20041;-62
2023/01/01 07:37:31;;;;;;;10.18;1.05;;;11.70;99.90;;;;;;5041317;28;20573;-63
2023/01/01 07:39:56;;;;;;;8.77;1.05;;;11.60;99.90;;;;;;5041882;28;20048;-65
2023/01/01 07:42:22;;;;;;;14.60;1.00;;;11.60;99.90;;;;;;5023914;28;20045;-64
2023/01/01 07:44:48;;;;;;;10.70;0.90;;;11.50;99.90;;;;;;5023639;28;20549;-64
2023/01/01 07:47:21;;;;;;;12.05;1.20;;;11.50;99.90;;;;;;5023254;28;20592;-63
2023/01/01 07:49:46;;;;;;;15.10;1.38;;;11.50;99.90;;;;;;5023057;28;20137;-62
2023/01/01 07:52:12;;;;;;;19.60;1.98;;;11.40;99.90;;;;;;5041528;28;20041;-62
2023/01/01 07:54:38;;;;;;;14.50;1.73;;;11.40;99.90;;;;;;5006098;28;20740;-62
2023/01/01 07:57:03;;;;;;;11.98;1.48;;;11.40;99.90;;;;;;5023066;28;20045;-63
2023/01/01 07:59:29;;;;;;;14.60;1.50;;;11.30;99.90;;;;;;5022176;28;20529;-63
2023/01/01 08:01:55;;;;;;;12.85;1.42;;;11.30;99.90;;;;;;5040745;28;20526;-64
2023/01/01 08:04:21;;;;;;;15.18;2.05;;;11.30;99.90;;;;;;5023135;28;20498;-64
2023/01/01 08:06:49;;;;;;;17.10;1.73;;;11.30;99.90;;;;;;4989676;28;20068;-63
2023/01/01 08:09:15;;;;;;;19.50;2.22;;;11.30;99.90;;;;;;5023845;28;20080;-64
2023/01/01 08:11:42;;;;;;;20.90;2.50;;;11.30;99.90;;;;;;5007269;28;20045;-62
2023/01/01 08:14:07;;;;;;;15.63;2.35;;;11.30;99.90;;;;;;5041641;28;20229;-63
2023/01/01 08:16:33;;;;;;;18.08;2.38;;;11.30;99.90;;;;;;5007431;28;20101;-64
2023/01/01 08:18:59;;;;;;;15.90;2.33;;;11.20;99.90;;;;;;5040237;28;20110;-62
2023/01/01 08:21:24;;;;;;;18.92;2.38;;;11.20;99.90;;;;;;5022248;28;20032;-63
2023/01/01 08:23:50;;;;;;;18.42;2.60;;;11.20;99.90;;;;;;5040661;28;20048;-62
2023/01/01 08:26:17;;;;;;;19.80;2.28;;;11.20;99.90;;;;;;5039234;28;20337;-63
2023/01/01 08:28:43;;;;;;;18.60;2.35;;;11.10;99.90;;;;;;5037983;28;20044;-64
2023/01/01 08:31:09;;;;;;;21.15;2.17;;;11.20;99.90;;;;;;5021234;28;20047;-62
2023/01/01 08:33:35;;;;;;;17.35;1.77;;;11.20;99.90;;;;;;5040568;28;20040;-62
2023/01/01 08:36:01;;;;;;;14.80;2.00;;;11.20;99.90;;;;;;5022898;28;20167;-62
2023/01/01 08:38:26;;;;;;;19.45;2.22;;;11.20;99.90;;;;;;5021169;28;20119;-63
2023/01/01 08:40:52;;;;;;;13.90;1.58;;;11.20;99.90;;;;;;5040112;28;20436;-63
2023/01/01 08:43:18;;;;;;;15.20;2.03;;;11.20;99.90;;;;;;5019668;28;20150;-63
2023/01/01 08:45:44;;;;;;;25.85;2.45;;;11.30;99.90;;;;;;5004005;28;20155;-64
2023/01/01 08:48:10;;;;;;;19.58;2.33;;;11.20;99.90;;;;;;5020981;28;20116;-63
2023/01/01 08:50:36;;;;;;;17.92;2.22;;;11.20;99.90;;;;;;5003918;28;20128;-64
2023/01/01 08:53:02;;;;;;;22.17;2.40;;;11.30;99.90;;;;;;5022121;28;20152;-62
2023/01/01 08:55:28;;;;;;;16.80;2.22;;;11.30;99.90;;;;;;5038399;28;20625;-64
2023/01/01 08:57:54;;;;;;;20.40;2.65;;;11.20;99.90;;;;;;5019353;28;20033;-65
2023/01/01 09:00:20;;;;;;;17.17;2.22;;;11.30;99.90;;;;;;4985370;28;20393;-64
2023/01/01 09:02:45;;;;;;;25.80;2.55;;;11.30;99.90;;;;;;5002135;28;21117;-65
2023/01/01 09:05:11;;;;;;;17.63;2.05;;;11.30;99.90;;;;;;5019065;28;20042;-65
2023/01/01 09:07:37;;;;;;;20.17;2.67;;;11.30;99.90;;;;;;5003346;28;20067;-65
2023/01/01 09:10:04;;;;;;;21.40;2.53;;;11.30;99.90;;;;;;5039876;28;20459;-65
2023/01/01 09:12:30;;;;;;;23.17;3.28;;;11.30;99.90;;;;;;5021928;28;20310;-64
2023/01/01 09:14:55;;;;;;;21.42;2.92;;;11.30;99.90;;;;;;5040186;28;20054;-64
2023/01/01 09:17:21;;;;;;;24.05;3.13;;;11.40;99.90;;;;;;5039931;28;20155;-64
2023/01/01 09:19:47;;;;;;;21.90;2.65;;;11.30;99.90;;;;;;5006669;28;20593;-63
2023/01/01 09:22:13;;;;;;;15.32;2.15;;;11.30;99.90;;;;;;5040327;28;20461;-64
2023/01/01 09:24:38;;;;;;;19.48;2.92;;;11.30;99.90;;;;;;5022969;28;20055;-61
2023/01/01 09:27:04;;;;;;;20.60;2.47;;;11.30;99.90;;;;;;5041100;28;20127;-63
2023/01/01 09:29:30;;;;;;;17.00;2.40;;;11.40;99.90;;;;;;5022798;28;20518;-63
2023/01/01 09:31:55;;;;;;;17.80;2.53;;;11.30;99.90;;;;;;5006495;28;20499;-64
2023/01/01 09:34:21;;;;;;;15.50;2.85;;;11.30;99.90;;;;;;4989270;28;20044;-64
2023/01/01 09:36:47;;;;;;;19.73;2.65;;;11.30;99.90;;;;;;5040624;28;20048;-63
2023/01/01 09:39:14;;;;;;;22.23;3.13;;;11.30;99.90;;;;;;5006034;28;20049;-65
2023/01/01 09:41:52;;;;;;;23.88;2.53;;;11.40;99.90;;;;;;5023275;28;20481;-63
2023/01/01 09:44:32;;;;;;;22.00;2.90;;;11.40;99.90;;;;;;5043766;28;20471;-63
2023/01/01 09:47:02;;;;;;;30.52;2.95;;;11.40;99.90;;;;;;5044312;28;20059;-64
2023/01/01 09:49:31;;;;;;;25.13;3.38;;;11.50;99.90;;;;;;5009897;28;20111;-63
2023/01/01 09:52:00;;;;;;;24.67;2.30;;;11.50;99.90;;;;;;5044210;28;20137;-64
2023/01/01 09:54:38;;;;;;;26.60;3.22;;;11.50;99.90;;;;;;5026124;28;20103;-63
2023/01/01 09:57:09;;;;;;;21.20;2.88;;;11.50;99.90;;;;;;5025820;28;20037;-65
2023/01/01 09:59:35;;;;;;;19.45;2.55;;;11.60;99.90;;;;;;5025244;28;20059;-64
2023/01/01 10:02:06;;;;;;;23.50;2.63;;;11.60;99.90;;;;;;5043595;28;20045;-66
2023/01/01 10:04:35;;;;;;;20.67;2.50;;;11.60;99.90;;;;;;5025522;28;20456;-64
2023/01/01 10:07:25;;;;;;;23.23;3.05;;;11.70;99.90;;;;;;5025020;28;20503;-64
2023/01/01 10:09:54;;;;;;;18.73;2.10;;;11.80;99.90;;;;;;5024878;28;20049;-63
2023/01/01 10:13:00;;;;;;;25.58;3.15;;;11.90;99.90;;;;;;5008795;28;20356;-64
2023/01/01 10:15:33;;;;;;;19.85;2.35;;;11.90;91.20;;;;;;5025557;28;20152;-65
2023/01/01 10:18:04;;;;;;;20.65;2.67;;;12.00;99.90;;;;;;5043388;28;20087;-63
2023/01/01 10:20:43;;;;;;;14.40;1.92;;;12.10;99.90;;;;;;5026089;28;20053;-64
2023/01/01 10:23:20;;;;;;;18.73;2.55;;;12.30;92.60;;;;;;5043427;28;20188;-63
2023/01/01 10:25:46;;;;;;;18.75;2.85;;;12.70;59.30;;;;;;5025718;28;20048;-64
2023/01/01 10:28:35;;;;;;;22.80;2.42;;;12.90;99.90;;;;;;5024800;28;20126;-64
2023/01/01 10:31:18;;;;;;;21.17;3.17;;;13.00;99.90;;;;;;5034417;28;20049;-64
2023/01/01 10:33:45;;;;;;;19.25;2.30;;;12.90;1.00;;;;;;5008593;28;20217;-64
2023/01/01 10:36:14;;;;;;;17.77;2.63;;;12.80;1.00;;;;;;5008341;28;20052;-64
2023/01/01 10:38:40;;;;;;;21.33;2.50;;;12.70;45.70;;;;;;5043024;28;20052;-64
2023/01/01 10:41:08;;;;;;;22.40;2.70;;;12.70;99.90;;;;;;5008467;28;20400;-65
2023/01/01 10:43:34;;;;;;;22.38;3.15;;;12.60;99.90;;;;;;5008151;28;20679;-65
2023/01/01 10:46:02;;;;;;;18.63;2.70;;;12.40;99.90;;;;;;5008290;28;20045;-64
2023/01/01 10:48:30;;;;;;;23.35;3.33;;;12.30;99.90;;;;;;5042532;28;20111;-65
2023/01/01 10:51:03;;;;;;;15.40;2.42;;;12.20;99.90;;;;;;5008407;28;20041;-64
2023/01/01 10:53:32;;;;;;;22.90;3.20;;;12.30;85.80;;;;;;5042098;28;20557;-64
2023/01/01 10:56:12;;;;;;;20.70;2.60;;;12.20;99.90;;;;;;5024561;28;20059;-65
2023/01/01 10:58:56;;;;;;;15.55;2.22;;;12.10;95.40;;;;;;5024638;28;20049;-63
2023/01/01 11:01:27;;;;;;;20.13;2.55;;;11.90;99.90;;;;;;5024338;28;20127;-63
2023/01/01 11:04:07;;;;;;;17.52;2.53;;;11.90;99.90;;;;;;5024370;28;20041;-64
2023/01/01 11:06:42;;;;;;;17.55;2.85;;;12.00;99.90;;;;;;5042659;28;20049;-63
2023/01/01 11:09:30;;;;;;;20.33;2.75;;;12.00;39.10;;;;;;5042479;28;20048;-64
2023/01/01 11:12:07;;;;;;;16.98;2.47;;;12.20;96.30;;;;;;5042347;28;20040;-63
2023/01/01 11:14:52;;;;;;;18.00;1.95;;;12.40;94.60;;;;;;5042134;28;20324;-65
2023/01/01 11:17:30;;;;;;;17.10;2.25;;;12.60;69.80;;;;;;5042244;28;20044;-64
2023/01/01 11:19:57;;;;;;;17.92;2.10;;;12.80;1.00;;;;;;5041977;28;20479;-63
2023/01/01 11:22:41;;;;;;;15.70;1.88;;;12.90;79.50;;;;;;5024218;28;20087;-63
2023/01/01 11:25:26;;;;;;;14.40;1.48;;;12.90;15.10;;;;;;5042658;28;20456;-63
2023/01/01 11:28:10;;;;;;;16.65;1.75;;;13.00;1.00;;;;;;5042085;28;20577;-64
2023/01/01 11:30:37;;;;;;;22.75;2.72;;;12.90;1.00;;;;;;5024493;28;20421;-63
2023/01/01 11:33:04;;;;;;;16.83;2.15;;;12.90;96.00;;;;;;5024125;28;20041;-64
2023/01/01 11:35:34;;;;;;;12.93;1.63;;;12.90;97.30;;;;;;5024938;28;20285;-64
2023/01/01 11:38:01;;;;;;;14.55;2.08;;;12.90;1.00;;;;;;5024610;28;20075;-63
2023/01/01 11:40:30;;;;;;;17.00;2.03;;;12.90;28.50;;;;;;5007753;28;20494;-65
2023/01/01 11:43:02;;;;;;;13.57;1.30;;;12.80;75.70;;;;;;5023982;28;20120;-65
2023/01/01 11:45:38;;;;;;;21.33;2.50;;;12.70;1.00;;;;;;5023909;28;20072;-65
2023/01/01 11:48:13;;;;;;;18.10;2.13;;;12.60;26.80;;;;;;5023666;28;20283;-65
2023/01/01 11:50:41;;;;;;;15.95;1.70;;;12.50;1.00;;;;;;5023247;28;20053;-63
2023/01/01 11:53:36;;;;;;;15.45;1.90;;;12.40;33.20;;;;;;5023279;28;20056;-64
2023/01/01 11:56:20;;;;;;;10.07;1.30;;;12.30;24.90;;;;;;5041479;28;20124;-64
2023/01/01 11:59:02;;;;;;;;;;;12.40;1.00;;;;;;5024253;28;20486;-63
2023/01/01 12:01:49;;;;;;;14.40;1.55;;;12.50;1.00;;;;;;5041304;28;19977;-64
2023/01/01 12:04:25;;;;;;;17.23;1.80;;;12.60;1.00;;;;;;5022566;28;20124;-65
2023/01/01 12:07:06;;;;;;;7.45;0.98;;;12.70;10.20;;;;;;5022701;28;20102;-65
2023/01/01 12:09:50;;;;;;;12.48;1.48;;;12.60;1.00;;;;;;5021092;28;20929;-64
2023/01/01 12:12:20;;;;;;;15.13;1.67;;;12.80;1.00;;;;;;5005242;28;20037;-64
2023/01/01 12:14:57;;;;;;;15.85;1.40;;;12.90;26.60;;;;;;5022254;28;20063;-63
2023/01/01 12:17:27;;;;;;;15.65;1.63;;;13.10;1.00;;;;;;5037243;28;20044;-64
2023/01/01 12:19:59;;;;;;;12.13;1.42;;;13.40;1.00;;;;;;5019129;28;20647;-65
2023/01/01 12:22:26;;;;;;;14.57;2.05;;;13.50;1.00;;;;;;5020914;28;20532;-63
2023/01/01 12:24:53;;;;;;;14.15;1.85;;;13.40;1.00;;;;;;5019526;28;20522;-64
2023/01/01 12:27:35;;;;;;;14.35;1.70;;;13.30;2.50;;;;;;5016852;28;20075;-64
2023/01/01 12:30:33;;;;;;;15.23;1.63;;;13.00;1.00;;;;;;5017269;28;20152;-63
2023/01/01 12:33:17;;;;;;;16.67;1.70;;;12.70;33.00;;;;;;5036052;28;20052;-63
2023/01/01 12:35:59;;;;;;;14.45;1.40;;;12.60;91.60;;;;;;5017274;28;20567;-64
2023/01/01 12:38:25;;;;;;;14.55;1.60;;;12.50;87.90;;;;;;5017208;28;20125;-64
2023/01/01 12:40:56;;;;;;;17.73;1.60;;;12.40;79.20;;;;;;5001794;28;20049;-64
2023/01/01 12:43:43;;;;;;;16.80;2.03;;;12.50;92.30;;;;;;5021520;28;20657;-65
2023/01/01 12:46:23;;;;;;;14.02;1.88;;;12.50;1.00;;;;;;5036575;28;20045;-64
2023/01/01 12:49:10;;;;;;;16.90;1.70;;;12.80;1.00;;;;;;5019359;28;20049;-63
2023/01/01 12:51:54;;;;;;;11.70;2.13;;;13.10;1.00;;;;;;5018038;28;20136;-64
2023/01/01 12:54:51;;;;;;;20.25;2.28;;;13.20;1.00;;;;;;5036831;28;20041;-63
2023/01/01 12:57:47;;;;;;;16.60;2.45;;;13.10;16.70;;;;;;5035383;28;20116;-63